Port Orchard, WA (98366)

4:51 AM PST on December 05, 2016 (GMT -0800)
Point Glover Knoll | | Change Station
Active Advisory: Winter Weather Advisory

Elev 220 ft 47.57 °N, 122.57 °W | Updated 49 seconds ago

Overcast
Overcast
36.3 °F
Feels Like 30 °F
N
8.7
Wind Variable Wind from SSW
Gusts 9.8 mph

Today
High -- | Low -- °F
--% Chance of Precip.
Yesterday
High -- | Low -- °F
Precip. -- in
Pressure 30.12 in
Visibility 10.0 miles
Clouds Mostly Cloudy 500 ft
Overcast 1100 ft
Windchill 30 °F
Dew Point 31 °F
Humidity 80%
Rainfall 0.00 in
Snow Depth Not available.
7:42 AM 4:19 PM
Waxing Crescent, 31% visible
METAR KPWT 051235Z 18003KT 10SM BKN005 OVC011 01/01 A3012 RMK AO1
Pressure 30.12 in
Visibility 10.0 miles
Clouds Mostly Cloudy 500 ft
Overcast 1100 ft
Windchill 30 °F
Dew Point 31 °F
Humidity 80%
Rainfall 0.00 in
Snow Depth Not available.
7:42 AM 4:19 PM
Waxing Crescent, 31% visible
METAR KPWT 051235Z 18003KT 10SM BKN005 OVC011 01/01 A3012 RMK AO1

10-Day Weather Forecast

Almanac

Astronomy

Dec. 05, 2016 Rise Set
Actual Time
Civil Twilight
Nautical Twilight
Astronomical Twilight
Moon
Length of Visible Light
Length of Day
Tomorrow will be .
, % of the Moon is Illuminated

Today's Extremes

State Highs State Lows

Community

WunderPhotos

Upload Photos

1,955,778 photos uploaded!

WunderBlog® & News

Nearby

Air Quality

  Air Quality AQ Index Pollutant
Not available.

Snow Depth

Station Depth Elevation

Earthquake Activity

City Distance Mag. Time & Date
Minimum magnitude displayed is 2.5.

Coastal Water Temperatures

Place Temperature

Stations

Nearby Weather Stations

Station Location Temp. Windchill Dew Point Humidity Wind Precip. Elev Updated Type
                   

Watches & Warnings

Winter Weather Advisory
Issued: 4:15 AM PST Dec. 5, 2016 – National Weather Service

... Winter Weather Advisory remains in effect until noon PST today...

* timing... this morning between 4 am and noon.

* Snow amounts... up to two inches of snow above 500 feet. Accumulation
less than one inch below 500 feet.

* Snow levels... mainly near 500 feet.

* Impacts... hazardous driving conditions are possible during the
morning commute today mainly on the higher hills.

Precautionary/preparedness actions...

A Winter Weather Advisory for snow means that periods of snow could
cause travel difficulties. Use caution while driving.